createdAt,value
2022-11-29T00:02:28.248Z,16.95
2022-11-29T00:07:29.912Z,19.08
2022-11-29T00:12:31.507Z,19.42
2022-11-29T00:17:32.995Z,19.65
2022-11-29T00:22:34.533Z,19.85
2022-11-29T00:27:36.099Z,18.02
2022-11-29T00:32:37.633Z,22.40
2022-11-29T00:37:39.138Z,20.58
2022-11-29T00:42:40.702Z,19.13
2022-11-29T00:47:42.229Z,20.27
2022-11-29T00:52:43.750Z,18.83
2022-11-29T00:57:45.276Z,19.85
2022-11-29T01:02:46.823Z,21.60
2022-11-29T01:07:48.445Z,17.85
2022-11-29T01:12:50.034Z,18.63
2022-11-29T01:17:51.557Z,19.20
2022-11-29T01:22:53.199Z,18.10
2022-11-29T01:27:54.791Z,17.58
2022-11-29T01:32:56.267Z,16.92
2022-11-29T01:37:57.780Z,17.40
2022-11-29T01:42:59.297Z,17.20
2022-11-29T01:48:01.157Z,15.43
2022-11-29T01:53:03.351Z,14.80
2022-11-29T01:58:07.921Z,15.88
2022-11-29T02:03:15.433Z,15.05
2022-11-29T02:08:23.062Z,14.23
2022-11-29T02:13:30.666Z,13.43
2022-11-29T02:18:48.824Z,13.52
2022-11-29T02:24:05.237Z,13.65
2022-11-29T02:29:34.240Z,14.40
2022-11-29T02:35:01.633Z,13.30
2022-11-29T02:40:03.070Z,14.43
2022-11-29T02:45:25.791Z,13.90
2022-11-29T02:50:48.980Z,13.40
2022-11-29T02:56:05.888Z,14.98
2022-11-29T03:01:30.415Z,12.65
2022-11-29T03:06:45.735Z,13.82
2022-11-29T03:11:51.987Z,13.35
2022-11-29T03:17:04.018Z,12.75
2022-11-29T03:22:11.633Z,14.10
2022-11-29T03:27:21.169Z,13.20
2022-11-29T03:32:56.875Z,12.75
2022-11-29T03:38:13.389Z,14.55
2022-11-29T03:43:23.581Z,9.80
2022-11-29T03:48:49.153Z,16.38
2022-11-29T03:53:52.747Z,17.52
2022-11-29T03:59:24.495Z,17.48
2022-11-29T04:04:47.751Z,18.13
2022-11-29T04:10:21.749Z,18.42
2022-11-29T04:15:58.026Z,19.27
2022-11-29T04:21:13.511Z,20.33
2022-11-29T04:26:30.892Z,19.80
2022-11-29T04:31:52.823Z,20.35
2022-11-29T04:37:25.975Z,22.15
2022-11-29T04:42:46.050Z,23.30
2022-11-29T04:48:33.362Z,25.75
2022-11-29T04:53:41.042Z,27.17
2022-11-29T04:59:09.934Z,31.95
2022-11-29T05:04:22.077Z,29.85
2022-11-29T05:09:45.472Z,28.45
2022-11-29T05:15:16.173Z,31.95
2022-11-29T05:20:44.268Z,34.80
2022-11-29T05:26:10.454Z,33.22
2022-11-29T05:31:57.020Z,37.17
2022-11-29T05:37:10.673Z,38.33
2022-11-29T05:42:31.047Z,34.95
2022-11-29T05:47:49.172Z,36.92
2022-11-29T05:53:21.608Z,33.13
2022-11-29T05:58:47.496Z,35.83
2022-11-29T06:04:06.245Z,38.60
2022-11-29T06:09:19.259Z,37.80
2022-11-29T06:15:04.587Z,35.25
2022-11-29T06:20:39.973Z,35.67
2022-11-29T06:26:04.239Z,33.17
2022-11-29T06:31:27.914Z,34.25
2022-11-29T06:36:53.469Z,32.88
2022-11-29T06:41:55.001Z,31.90
2022-11-29T06:47:10.448Z,31.35
2022-11-29T06:52:17.830Z,31.02
2022-11-29T06:57:59.246Z,32.30
2022-11-29T07:03:32.912Z,38.55
2022-11-29T07:08:34.792Z,38.85
2022-11-29T07:13:36.616Z,42.33
2022-11-29T07:18:53.721Z,42.95
2022-11-29T07:24:03.986Z,46.42
2022-11-29T07:29:12.124Z,45.40
2022-11-29T07:34:33.863Z,48.22
2022-11-29T07:39:42.596Z,46.75
2022-11-29T07:44:50.963Z,47.80
2022-11-29T07:49:52.572Z,49.60
2022-11-29T07:54:54.192Z,47.88
2022-11-29T07:59:55.707Z,47.10
2022-11-29T08:04:57.762Z,51.28
2022-11-29T08:09:59.402Z,47.38
2022-11-29T08:15:01.590Z,45.78
2022-11-29T08:20:04.464Z,51.60
2022-11-29T08:25:07.253Z,52.60
2022-11-29T08:30:09.088Z,46.88
2022-11-29T08:35:10.760Z,45.35
2022-11-29T08:40:12.667Z,46.22
2022-11-29T08:45:14.202Z,46.40
2022-11-29T08:50:17.870Z,44.13
2022-11-29T08:55:21.462Z,43.17
2022-11-29T09:00:23.191Z,42.13
2022-11-29T09:05:24.799Z,44.60
2022-11-29T09:10:26.393Z,40.22
2022-11-29T09:15:27.928Z,42.30
2022-11-29T09:20:29.534Z,38.33
2022-11-29T09:25:31.086Z,35.05
2022-11-29T09:30:33.173Z,33.80
2022-11-29T09:35:34.789Z,31.20
2022-11-29T09:40:57.360Z,31.05
2022-11-29T09:46:19.887Z,31.42
2022-11-29T09:51:46.398Z,25.20
2022-11-29T09:56:51.668Z,30.27
2022-11-29T10:01:57.161Z,28.50
2022-11-29T10:07:20.194Z,29.88
2022-11-29T10:12:37.484Z,28.88
2022-11-29T10:17:44.950Z,25.83
2022-11-29T10:23:02.293Z,26.40
2022-11-29T10:28:08.944Z,27.50
2022-11-29T10:38:34.757Z,24.45
2022-11-29T10:48:38.432Z,22.77
2022-11-29T10:53:40.090Z,22.00
2022-11-29T10:59:02.511Z,21.08
2022-11-29T11:04:05.694Z,19.48
2022-11-29T11:09:20.771Z,20.35
2022-11-29T11:14:32.079Z,19.58
2022-11-29T11:19:34.628Z,19.90
2022-11-29T11:24:41.007Z,21.13
2022-11-29T11:29:44.748Z,21.63
2022-11-29T11:35:21.430Z,20.38
2022-11-29T11:40:28.982Z,14.53
2022-11-29T11:45:35.926Z,20.88
2022-11-29T11:55:53.268Z,18.75
2022-11-29T12:01:05.840Z,17.80
2022-11-29T12:06:43.931Z,17.85
2022-11-29T12:11:56.741Z,18.48
2022-11-29T12:17:43.715Z,19.83
2022-11-29T12:22:51.207Z,11.40
2022-11-29T12:27:53.034Z,15.77
2022-11-29T12:33:03.600Z,16.25
2022-11-29T12:38:40.778Z,16.70
2022-11-29T12:43:53.032Z,15.88
2022-11-29T12:49:16.913Z,16.80
2022-11-29T12:54:40.287Z,17.08
2022-11-29T12:59:53.946Z,17.08
2022-11-29T13:05:23.004Z,18.58
2022-11-29T13:10:24.516Z,17.25
2022-11-29T13:15:50.616Z,17.25
2022-11-29T13:20:55.987Z,17.02
2022-11-29T13:26:00.729Z,16.77
2022-11-29T13:31:08.406Z,18.95
2022-11-29T13:36:22.065Z,18.70
2022-11-29T13:41:54.811Z,20.55
2022-11-29T13:47:09.849Z,22.83
2022-11-29T13:52:39.448Z,21.60
2022-11-29T14:03:23.389Z,24.10
2022-11-29T14:08:54.648Z,23.20
2022-11-29T14:14:08.769Z,23.98
2022-11-29T14:19:10.265Z,22.67
2022-11-29T14:24:33.534Z,23.95
2022-11-29T14:29:50.271Z,23.30
2022-11-29T14:35:11.993Z,22.05
2022-11-29T14:40:25.374Z,21.73
2022-11-29T14:45:32.949Z,21.25
2022-11-29T14:50:40.391Z,20.35
2022-11-29T14:55:41.989Z,23.08
2022-11-29T15:00:53.977Z,21.95
2022-11-29T15:05:59.788Z,22.13
2022-11-29T15:11:25.724Z,24.52
2022-11-29T15:16:27.236Z,23.33
2022-11-29T15:21:28.739Z,24.15
2022-11-29T15:26:30.286Z,26.42
2022-11-29T15:31:31.953Z,24.00
2022-11-29T15:36:33.569Z,25.50
2022-11-29T15:41:35.267Z,25.33
2022-11-29T15:46:36.889Z,30.35
2022-11-29T15:51:39.428Z,27.00
2022-11-29T15:56:43.902Z,31.60
2022-11-29T16:01:48.291Z,27.50
2022-11-29T16:06:50.547Z,26.30
2022-11-29T16:11:52.218Z,26.98
2022-11-29T16:16:57.005Z,24.25
2022-11-29T16:22:22.969Z,27.38
2022-11-29T16:27:24.754Z,23.92
2022-11-29T16:32:32.487Z,28.88
2022-11-29T16:37:43.963Z,26.33
2022-11-29T16:43:06.751Z,25.60
2022-11-29T16:48:23.194Z,25.80
2022-11-29T16:53:39.630Z,20.35
2022-11-29T16:59:21.095Z,27.65
2022-11-29T17:04:04.680Z,29.92
2022-11-29T17:09:06.530Z,28.15
2022-11-29T17:14:08.409Z,27.67
2022-11-29T17:19:12.466Z,32.67
2022-11-29T17:24:17.327Z,36.78
2022-11-29T17:29:18.978Z,35.30
2022-11-29T17:34:21.000Z,32.00
2022-11-29T17:39:22.516Z,31.55
2022-11-29T17:44:24.068Z,34.25
2022-11-29T17:49:25.749Z,34.50
2022-11-29T17:54:27.351Z,37.58
2022-11-29T17:59:28.837Z,38.80
2022-11-29T18:04:30.449Z,40.15
2022-11-29T18:09:32.023Z,38.28
2022-11-29T18:14:33.752Z,39.95
2022-11-29T18:19:35.334Z,38.80
2022-11-29T18:24:36.889Z,38.35
2022-11-29T18:29:39.410Z,37.97
2022-11-29T18:34:41.032Z,36.92
2022-11-29T18:39:42.506Z,33.75
2022-11-29T18:44:44.566Z,32.33
2022-11-29T18:49:46.375Z,30.75
2022-11-29T18:54:48.061Z,33.80
2022-11-29T18:59:49.664Z,29.67
2022-11-29T19:04:51.180Z,33.00
2022-11-29T19:09:52.787Z,30.83
2022-11-29T19:14:54.595Z,31.85
2022-11-29T19:19:56.525Z,30.25
2022-11-29T19:24:58.070Z,29.80
2022-11-29T19:29:59.626Z,30.20
2022-11-29T19:35:01.239Z,28.73
2022-11-29T19:40:03.038Z,28.60
2022-11-29T19:45:20.894Z,32.63
2022-11-29T19:50:22.439Z,31.20
2022-11-29T19:55:23.969Z,30.73
2022-11-29T20:00:25.549Z,31.52
2022-11-29T20:05:27.066Z,33.45
2022-11-29T20:10:28.716Z,29.63
2022-11-29T20:15:30.709Z,28.35
2022-11-29T20:20:33.477Z,28.42
2022-11-29T20:25:34.993Z,30.98
2022-11-29T20:30:36.640Z,33.20
2022-11-29T20:35:38.687Z,33.65
2022-11-29T20:41:04.215Z,32.17
2022-11-29T20:46:06.072Z,33.80
2022-11-29T20:51:10.305Z,32.78
2022-11-29T20:56:12.254Z,32.90
2022-11-29T21:01:13.827Z,32.90
2022-11-29T21:06:15.473Z,32.55
2022-11-29T21:11:17.355Z,33.20
2022-11-29T21:16:29.718Z,31.88
2022-11-29T21:21:42.007Z,30.65
2022-11-29T21:26:51.458Z,30.15
2022-11-29T21:31:54.290Z,27.23
2022-11-29T21:36:58.943Z,29.85
2022-11-29T21:42:06.133Z,28.67
2022-11-29T21:47:07.857Z,26.48
2022-11-29T21:52:09.496Z,26.15
2022-11-29T21:57:12.066Z,28.58
2022-11-29T22:02:14.130Z,29.20
2022-11-29T22:07:16.280Z,25.98
2022-11-29T22:12:33.715Z,27.88
2022-11-29T22:17:36.071Z,25.42
2022-11-29T22:22:37.671Z,26.08
2022-11-29T22:27:39.303Z,26.42
2022-11-29T22:32:40.931Z,27.13
2022-11-29T22:37:42.578Z,25.13
2022-11-29T22:42:44.236Z,23.75
2022-11-29T22:47:45.845Z,27.65
2022-11-29T22:52:48.716Z,27.02
2022-11-29T22:57:52.778Z,25.88
2022-11-29T23:02:57.390Z,27.33
2022-11-29T23:07:59.821Z,28.75
2022-11-29T23:13:01.476Z,27.48
2022-11-29T23:18:03.288Z,27.50
2022-11-29T23:23:05.090Z,28.73
2022-11-29T23:28:06.778Z,29.02
2022-11-29T23:33:10.078Z,26.70
2022-11-29T23:38:11.771Z,27.17
2022-11-29T23:43:13.404Z,26.45
2022-11-29T23:48:15.005Z,28.40
2022-11-29T23:53:18.656Z,29.00
2022-11-29T23:58:20.263Z,29.20
